Time;durP1;ratioP1;P1;durP2;ratioP2;P2;SDS_P1;SDS_P2;PMS_P1;PMS_P2;Temp;Humidity;BMP_temperature;BMP_pressure;BME280_temperature;BME280_humidity;BME280_pressure;Samples;Min_cycle;Max_cycle;Signal;HPM_P1;HPM_P2
2022/11/22 00:01:04;;;;;;;0.40;0.40;;;2.50;99.90;;;;;;5085781;28;20107;-79
2022/11/22 00:03:30;;;;;;;0.63;0.63;;;2.50;99.90;;;;;;5095142;28;20044;-79
2022/11/22 00:05:55;;;;;;;0.40;0.40;;;2.50;99.90;;;;;;5068668;28;20043;-79
2022/11/22 00:08:23;;;;;;;0.80;0.80;;;2.50;99.90;;;;;;5086700;28;20094;-79
2022/11/22 00:10:48;;;;;;;0.73;0.73;;;2.50;99.90;;;;;;5086720;28;20040;-80
2022/11/22 00:13:15;;;;;;;1.38;1.15;;;2.50;99.90;;;;;;5067856;28;20060;-79
2022/11/22 00:15:41;;;;;;;3.08;2.85;;;2.50;99.90;;;;;;5086182;28;20047;-80
2022/11/22 00:18:08;;;;;;;1.65;1.55;;;2.50;99.90;;;;;;5084988;28;20044;-80
2022/11/22 00:20:34;;;;;;;1.15;0.88;;;2.50;99.90;;;;;;5086163;28;20043;-80
2022/11/22 00:22:59;;;;;;;1.02;0.93;;;2.50;99.90;;;;;;5085519;28;20093;-80
2022/11/22 00:25:25;;;;;;;1.73;1.55;;;2.50;99.90;;;;;;5086245;28;20044;-80
2022/11/22 00:27:52;;;;;;;0.68;0.68;;;2.50;99.90;;;;;;5066675;28;20048;-80
2022/11/22 00:30:17;;;;;;;1.45;1.35;;;2.50;99.90;;;;;;5067923;28;20052;-79
2022/11/22 00:32:43;;;;;;;0.40;0.40;;;2.50;99.90;;;;;;5085081;28;20078;-80
2022/11/22 00:35:10;;;;;;;0.77;0.75;;;2.50;99.90;;;;;;5085762;28;20048;-80
2022/11/22 00:37:36;;;;;;;2.08;1.30;;;2.40;99.90;;;;;;5051257;28;20044;-80
2022/11/22 00:40:02;;;;;;;4.57;2.92;;;2.40;99.90;;;;;;5086055;28;20085;-80
2022/11/22 00:42:28;;;;;;;4.68;2.05;;;2.40;99.90;;;;;;5067365;28;20040;-79
2022/11/22 00:44:53;;;;;;;1.60;1.50;;;2.40;99.90;;;;;;5085309;28;20452;-79
2022/11/22 00:47:19;;;;;;;2.67;2.15;;;2.40;99.90;;;;;;5083589;28;20490;-79
2022/11/22 00:49:45;;;;;;;0.70;0.70;;;2.40;99.90;;;;;;5067667;28;20040;-79
2022/11/22 00:52:10;;;;;;;4.73;2.27;;;2.40;99.90;;;;;;5085270;28;20065;-80
2022/11/22 00:54:36;;;;;;;0.85;0.85;;;2.40;99.90;;;;;;5084723;28;20089;-79
2022/11/22 00:57:01;;;;;;;0.15;0.15;;;2.40;99.90;;;;;;5067024;28;20059;-80
2022/11/22 00:59:27;;;;;;;6.40;2.38;;;2.40;99.90;;;;;;5067464;28;20040;-79
2022/11/22 01:01:53;;;;;;;1.02;1.02;;;2.40;99.90;;;;;;5066679;28;20091;-79
2022/11/22 01:04:18;;;;;;;0.50;0.50;;;2.30;99.90;;;;;;5066517;28;20048;-79
2022/11/22 01:06:44;;;;;;;2.15;1.45;;;2.30;99.90;;;;;;5084204;28;20044;-79
2022/11/22 01:09:15;;;;;;;1.15;1.05;;;2.30;99.90;;;;;;5084754;28;20055;-79
2022/11/22 01:11:43;;;;;;;1.13;0.95;;;2.30;99.90;;;;;;5067399;28;20155;-79
2022/11/22 01:14:08;;;;;;;1.38;1.15;;;2.30;99.90;;;;;;5085469;28;20048;-79
2022/11/22 01:16:34;;;;;;;1.88;1.08;;;2.30;99.90;;;;;;5085399;28;20490;-79
2022/11/22 01:18:59;;;;;;;2.03;0.73;;;2.30;99.90;;;;;;5085270;28;20083;-79
2022/11/22 01:21:25;;;;;;;1.40;1.30;;;2.30;99.90;;;;;;5066670;28;20167;-79
2022/11/22 01:23:51;;;;;;;1.13;1.13;;;2.40;99.90;;;;;;5085081;28;20088;-79
2022/11/22 01:26:16;;;;;;;2.13;1.92;;;2.60;99.90;;;;;;5084664;28;20190;-78
2022/11/22 01:28:42;;;;;;;10.65;2.63;;;2.40;99.90;;;;;;5085296;28;21006;-79
2022/11/22 01:31:08;;;;;;;1.75;1.65;;;2.40;99.90;;;;;;5084675;28;20048;-79
2022/11/22 01:33:34;;;;;;;2.03;0.85;;;2.40;99.90;;;;;;5084786;28;20051;-79
2022/11/22 01:35:59;;;;;;;0.77;0.77;;;2.40;99.90;;;;;;5084870;28;20418;-79
2022/11/22 01:38:25;;;;;;;1.85;1.75;;;2.40;99.90;;;;;;5084899;28;20127;-79
2022/11/22 01:40:51;;;;;;;5.28;3.63;;;2.40;99.90;;;;;;5084459;28;20040;-79
2022/11/22 01:43:22;;;;;;;1.77;1.65;;;2.50;99.90;;;;;;5084463;28;20052;-79
2022/11/22 01:46:03;;;;;;;2.83;1.85;;;2.50;99.90;;;;;;5083373;28;20035;-78
2022/11/22 01:48:35;;;;;;;2.55;1.52;;;2.50;99.90;;;;;;5084921;28;20130;-79
2022/11/22 01:51:12;;;;;;;1.35;1.27;;;2.50;99.90;;;;;;5066138;28;20487;-78
2022/11/22 01:53:38;;;;;;;2.72;1.45;;;2.50;99.90;;;;;;5084260;28;20118;-79
2022/11/22 01:56:07;;;;;;;3.22;2.95;;;2.50;99.90;;;;;;5084530;28;20449;-79
2022/11/22 01:58:35;;;;;;;1.23;1.13;;;2.50;99.90;;;;;;5066513;28;20056;-79
2022/11/22 02:01:01;;;;;;;1.40;1.30;;;2.50;99.90;;;;;;5084412;28;20163;-79
2022/11/22 02:03:30;;;;;;;1.60;0.63;;;2.50;99.90;;;;;;5066116;28;20036;-79
2022/11/22 02:05:56;;;;;;;0.77;0.77;;;2.50;99.90;;;;;;5063872;28;20282;-78
2022/11/22 02:08:35;;;;;;;3.13;2.55;;;2.60;99.90;;;;;;5046149;28;20630;-78
2022/11/22 02:11:07;;;;;;;0.25;0.25;;;2.50;99.90;;;;;;5046736;28;20511;-78
2022/11/22 02:13:36;;;;;;;4.28;2.05;;;2.60;99.90;;;;;;5065985;28;20507;-79
2022/11/22 02:16:03;;;;;;;1.60;1.50;;;2.60;99.90;;;;;;5084998;28;20449;-78
2022/11/22 02:18:28;;;;;;;0.93;0.93;;;2.60;99.90;;;;;;5089300;28;20052;-79
2022/11/22 02:20:56;;;;;;;4.22;3.08;;;2.60;99.90;;;;;;5088490;28;20047;-78
2022/11/22 02:23:30;;;;;;;1.15;1.05;;;2.70;99.90;;;;;;5088979;28;20123;-78
2022/11/22 02:25:58;;;;;;;1.65;1.55;;;2.60;99.90;;;;;;5088657;28;20048;-77
2022/11/22 02:28:27;;;;;;;1.75;1.45;;;2.60;99.90;;;;;;5088076;28;20056;-78
2022/11/22 02:30:53;;;;;;;1.92;1.67;;;2.70;99.90;;;;;;5054931;28;20044;-80
2022/11/22 02:33:18;;;;;;;0.90;0.90;;;2.70;99.90;;;;;;5069388;28;20127;-78
2022/11/22 02:35:44;;;;;;;1.95;1.83;;;2.70;99.90;;;;;;5108905;28;20751;-78
2022/11/22 02:38:20;;;;;;;1.88;1.75;;;2.80;99.90;;;;;;5091083;28;20043;-78
2022/11/22 02:40:54;;;;;;;1.23;1.17;;;2.80;99.90;;;;;;5095500;28;20051;-79
2022/11/22 02:43:28;;;;;;;4.82;2.22;;;2.70;99.90;;;;;;5088223;28;20067;-79
2022/11/22 02:45:54;;;;;;;5.28;2.88;;;2.80;99.90;;;;;;5087998;28;20074;-78
2022/11/22 02:48:19;;;;;;;2.53;1.25;;;2.80;99.90;;;;;;5087784;28;20846;-77
2022/11/22 02:50:45;;;;;;;2.03;1.88;;;2.80;99.90;;;;;;5088388;28;20067;-79
2022/11/22 02:53:12;;;;;;;0.55;0.55;;;2.80;99.90;;;;;;5089508;28;20044;-77
2022/11/22 02:55:38;;;;;;;1.30;1.00;;;2.80;99.90;;;;;;5089392;28;20059;-78
2022/11/22 02:58:07;;;;;;;1.55;1.45;;;2.90;99.90;;;;;;5087657;28;20094;-78
2022/11/22 03:00:35;;;;;;;3.10;1.25;;;2.90;99.90;;;;;;5088608;28;20047;-77
2022/11/22 03:03:00;;;;;;;0.88;0.88;;;2.90;99.90;;;;;;5088154;28;20055;-78
2022/11/22 03:05:26;;;;;;;2.13;1.95;;;2.90;99.90;;;;;;5089756;28;20406;-79
2022/11/22 03:07:52;;;;;;;0.00;0.00;;;2.90;99.90;;;;;;5088096;28;20040;-78
2022/11/22 03:10:17;;;;;;;3.83;2.47;;;2.90;99.90;;;;;;5051976;28;20067;-76
2022/11/22 03:12:43;;;;;;;5.15;3.75;;;3.00;99.90;;;;;;5086659;28;20052;-76
2022/11/22 03:15:09;;;;;;;2.33;1.48;;;3.00;99.90;;;;;;5086041;28;20483;-77
2022/11/22 03:17:36;;;;;;;2.50;0.73;;;3.00;99.90;;;;;;5087512;28;20062;-79
2022/11/22 03:20:02;;;;;;;2.42;2.22;;;3.00;99.90;;;;;;5087147;28;20048;-78
2022/11/22 03:22:28;;;;;;;1.25;0.93;;;2.90;99.90;;;;;;5088902;28;20105;-78
2022/11/22 03:24:54;;;;;;;0.40;0.40;;;3.00;99.90;;;;;;5087514;28;20048;-78
2022/11/22 03:27:19;;;;;;;1.02;1.02;;;3.00;99.90;;;;;;5088567;28;20459;-78
2022/11/22 03:29:45;;;;;;;2.22;1.08;;;3.00;99.90;;;;;;5086415;28;20036;-79
2022/11/22 03:32:11;;;;;;;3.38;1.60;;;3.00;99.90;;;;;;5088562;28;20040;-78
2022/11/22 03:34:36;;;;;;;2.13;2.03;;;3.00;99.90;;;;;;5088647;28;20127;-78
2022/11/22 03:37:02;;;;;;;0.93;0.73;;;3.00;99.90;;;;;;5088432;28;20051;-80
2022/11/22 03:39:27;;;;;;;1.30;1.23;;;3.10;99.90;;;;;;5088999;28;20040;-79
2022/11/22 03:41:55;;;;;;;3.92;1.00;;;3.10;99.90;;;;;;5071801;28;20113;-79
2022/11/22 03:44:23;;;;;;;0.82;0.82;;;3.10;99.90;;;;;;5071860;28;20095;-79
2022/11/22 03:46:49;;;;;;;0.70;0.70;;;3.10;99.90;;;;;;5088869;28;20040;-78
2022/11/22 03:49:15;;;;;;;0.50;0.50;;;3.10;99.90;;;;;;5069418;28;20048;-78
2022/11/22 03:51:40;;;;;;;0.10;0.10;;;3.10;99.90;;;;;;5069395;28;20055;-79
2022/11/22 03:54:06;;;;;;;1.80;1.70;;;3.10;99.90;;;;;;5068818;28;20525;-78
2022/11/22 03:56:35;;;;;;;1.23;1.17;;;3.10;99.90;;;;;;5069791;28;20555;-78
2022/11/22 03:59:00;;;;;;;0.50;0.50;;;3.20;99.90;;;;;;5085595;28;20428;-78
2022/11/22 04:01:26;;;;;;;2.25;1.58;;;3.20;99.90;;;;;;5084903;28;20052;-79
2022/11/22 04:03:51;;;;;;;5.75;2.35;;;3.20;99.90;;;;;;5068304;28;20054;-78
2022/11/22 04:06:17;;;;;;;0.60;0.60;;;3.20;99.90;;;;;;5086630;28;20506;-78
2022/11/22 04:08:43;;;;;;;0.55;0.55;;;3.30;99.90;;;;;;5086238;28;20044;-77
2022/11/22 04:11:08;;;;;;;0.68;0.68;;;3.70;99.90;;;;;;5085889;28;20055;-78
2022/11/22 04:16:19;;;;;;;0.38;0.38;;;3.20;99.90;;;;;;5068729;28;20594;-76
2022/11/22 04:18:44;;;;;;;0.63;0.57;;;3.30;99.90;;;;;;5086451;28;20390;-78
2022/11/22 04:26:56;;;;;;;0.38;0.38;;;3.30;99.90;;;;;;5027258;28;20115;-77
2022/11/22 04:29:22;;;;;;;0.90;0.50;;;3.30;99.90;;;;;;5058361;28;20066;-78
2022/11/22 04:34:34;;;;;;;1.13;1.00;;;3.30;99.90;;;;;;5068531;28;20170;-77
2022/11/22 04:37:00;;;;;;;2.10;1.80;;;3.40;99.90;;;;;;5086339;28;20063;-77
2022/11/22 04:39:26;;;;;;;1.02;1.02;;;3.40;99.90;;;;;;5086002;28;20048;-78
2022/11/22 04:44:40;;;;;;;2.07;1.73;;;3.40;99.90;;;;;;5068142;28;20103;-77
2022/11/22 04:47:10;;;;;;;2.95;2.03;;;3.50;99.90;;;;;;5086069;28;20371;-77
2022/11/22 04:49:35;;;;;;;1.55;1.08;;;3.50;99.90;;;;;;5085411;28;20695;-78
2022/11/22 04:54:45;;;;;;;1.55;1.45;;;3.50;99.90;;;;;;5067414;28;20106;-78
2022/11/22 04:57:11;;;;;;;1.33;1.13;;;3.50;99.90;;;;;;5084815;28;20515;-77
2022/11/22 04:59:37;;;;;;;1.13;1.08;;;3.50;99.90;;;;;;5067279;28;20059;-77
2022/11/22 05:02:02;;;;;;;0.40;0.40;;;3.50;99.90;;;;;;5066655;28;20055;-77
2022/11/22 05:04:28;;;;;;;2.28;1.30;;;3.60;99.90;;;;;;5067033;28;20134;-77
2022/11/22 05:06:55;;;;;;;2.35;1.20;;;3.60;99.90;;;;;;5067582;28;20261;-78
2022/11/22 05:09:21;;;;;;;3.50;2.22;;;3.60;99.90;;;;;;5085768;28;20048;-77
2022/11/22 05:11:46;;;;;;;2.42;1.83;;;3.60;99.90;;;;;;5085286;28;20066;-77
2022/11/22 05:14:12;;;;;;;0.88;0.85;;;3.60;99.90;;;;;;5068165;28;20415;-77
2022/11/22 05:16:38;;;;;;;2.55;2.35;;;3.60;99.90;;;;;;5085044;28;20052;-77
2022/11/22 05:19:03;;;;;;;2.42;1.85;;;3.60;99.90;;;;;;5084770;28;20044;-76
2022/11/22 05:21:29;;;;;;;1.38;0.85;;;3.60;99.90;;;;;;5085316;28;20047;-77
2022/11/22 05:23:55;;;;;;;8.50;2.42;;;3.60;99.90;;;;;;5067062;28;20507;-77
2022/11/22 05:26:29;;;;;;;1.05;0.88;;;3.60;99.90;;;;;;5084592;28;20032;-77
2022/11/22 05:28:58;;;;;;;2.28;2.05;;;3.60;99.90;;;;;;5067189;28;20056;-77
2022/11/22 05:31:26;;;;;;;0.75;0.70;;;3.60;99.90;;;;;;5083709;28;20048;-76
2022/11/22 05:33:53;;;;;;;0.95;0.88;;;3.60;99.90;;;;;;5083070;28;20098;-77
2022/11/22 05:36:20;;;;;;;3.42;0.90;;;3.60;99.90;;;;;;5066598;28;20407;-77
2022/11/22 05:38:46;;;;;;;1.67;1.58;;;3.70;99.90;;;;;;5082680;28;20130;-76
2022/11/22 05:41:13;;;;;;;1.00;0.68;;;3.70;99.90;;;;;;5066709;28;20051;-77
2022/11/22 05:43:40;;;;;;;0.93;0.93;;;3.70;99.90;;;;;;5084597;28;20048;-76
2022/11/22 05:46:15;;;;;;;0.20;0.20;;;3.80;99.90;;;;;;5065983;28;20047;-77
2022/11/22 05:48:43;;;;;;;1.48;1.38;;;3.80;99.90;;;;;;5084473;28;20055;-77
2022/11/22 05:51:11;;;;;;;2.65;2.13;;;3.80;99.90;;;;;;5085054;28;20044;-76
2022/11/22 05:53:37;;;;;;;0.22;0.22;;;3.80;99.90;;;;;;5088601;28;20141;-77
2022/11/22 05:56:07;;;;;;;2.53;0.88;;;3.80;99.90;;;;;;5086710;28;20131;-78
2022/11/22 05:58:33;;;;;;;1.83;1.52;;;3.80;99.90;;;;;;5087635;28;20067;-77
2022/11/22 06:01:14;;;;;;;0.70;0.70;;;3.80;99.90;;;;;;5069352;28;20060;-77
2022/11/22 06:03:39;;;;;;;1.85;1.70;;;3.80;99.90;;;;;;5067167;28;20048;-76
2022/11/22 06:06:06;;;;;;;0.55;0.55;;;3.80;99.90;;;;;;5066495;28;20392;-76
2022/11/22 06:08:34;;;;;;;0.10;0.10;;;3.80;99.90;;;;;;5081352;28;20059;-77
2022/11/22 06:11:24;;;;;;;1.80;1.27;;;3.90;99.90;;;;;;5086557;28;20044;-76
2022/11/22 06:13:55;;;;;;;0.43;0.43;;;3.80;99.90;;;;;;5075115;28;20070;-76
2022/11/22 06:16:21;;;;;;;1.88;1.75;;;3.90;99.90;;;;;;5085576;28;20574;-77
2022/11/22 06:18:47;;;;;;;1.55;1.45;;;3.90;99.90;;;;;;5085342;28;20521;-76
2022/11/22 06:21:15;;;;;;;4.75;0.93;;;3.80;99.90;;;;;;5066444;28;20055;-77
2022/11/22 06:23:41;;;;;;;2.30;2.05;;;3.90;99.90;;;;;;5081794;28;20052;-76
2022/11/22 06:26:10;;;;;;;0.85;0.85;;;3.90;99.90;;;;;;5065446;28;20048;-77
2022/11/22 06:28:37;;;;;;;1.05;0.73;;;3.90;99.90;;;;;;5085712;28;20117;-76
2022/11/22 06:31:08;;;;;;;0.45;0.45;;;3.90;99.90;;;;;;5066868;28;20048;-76
2022/11/22 06:33:34;;;;;;;0.90;0.88;;;3.90;99.90;;;;;;5086433;28;20059;-76
2022/11/22 06:36:11;;;;;;;1.58;1.48;;;4.70;99.90;;;;;;5086457;28;20040;-77
2022/11/22 06:38:38;;;;;;;1.30;1.20;;;4.00;99.90;;;;;;5067944;28;20040;-77
2022/11/22 06:41:06;;;;;;;0.32;0.32;;;4.00;99.90;;;;;;5086319;28;20551;-76
2022/11/22 06:43:33;;;;;;;1.45;1.20;;;4.00;99.90;;;;;;5085342;28;20067;-76
2022/11/22 06:46:00;;;;;;;4.68;2.10;;;4.10;99.90;;;;;;5085092;28;20032;-76
2022/11/22 06:48:29;;;;;;;1.20;0.95;;;4.10;99.90;;;;;;5085433;28;20044;-76
2022/11/22 06:50:59;;;;;;;1.95;1.27;;;4.10;99.90;;;;;;5067086;28;20128;-76
2022/11/22 06:53:28;;;;;;;0.40;0.40;;;4.10;99.90;;;;;;5085535;28;20119;-77
2022/11/22 06:56:00;;;;;;;1.65;0.95;;;4.10;99.90;;;;;;5085380;28;20134;-77
2022/11/22 06:58:26;;;;;;;1.90;0.65;;;4.30;99.90;;;;;;5085792;28;20067;-76
2022/11/22 07:00:51;;;;;;;0.60;0.60;;;4.10;99.90;;;;;;5085072;28;20047;-75
2022/11/22 07:03:17;;;;;;;0.65;0.63;;;4.10;99.90;;;;;;5085445;28;20047;-76
2022/11/22 07:05:52;;;;;;;1.67;1.55;;;4.20;99.90;;;;;;5084935;28;20044;-77
2022/11/22 07:08:18;;;;;;;0.57;0.57;;;4.20;99.90;;;;;;5085770;28;20311;-76
2022/11/22 07:10:44;;;;;;;2.42;2.03;;;4.20;99.90;;;;;;5085055;28;20044;-76
2022/11/22 07:13:10;;;;;;;1.45;1.35;;;4.30;99.90;;;;;;5084836;28;20032;-77
2022/11/22 07:15:35;;;;;;;1.38;1.27;;;4.30;99.90;;;;;;5085136;28;20181;-76
2022/11/22 07:18:01;;;;;;;2.20;1.50;;;4.40;99.90;;;;;;5085084;28;20461;-76
2022/11/22 07:20:27;;;;;;;0.13;0.13;;;4.40;99.90;;;;;;5081018;28;20040;-76
2022/11/22 07:22:52;;;;;;;1.02;0.77;;;4.40;99.90;;;;;;5075686;28;20445;-75
2022/11/22 07:25:18;;;;;;;0.85;0.85;;;4.40;99.90;;;;;;5084789;28;20146;-76
2022/11/22 07:27:43;;;;;;;1.08;0.98;;;4.40;99.90;;;;;;5084477;28;20170;-76
2022/11/22 07:30:10;;;;;;;3.75;1.00;;;4.40;99.90;;;;;;5084196;28;20044;-76
2022/11/22 07:32:35;;;;;;;0.63;0.63;;;4.50;99.90;;;;;;5059921;28;20573;-76
2022/11/22 07:35:03;;;;;;;1.55;1.45;;;4.50;99.90;;;;;;5082960;28;20134;-76
2022/11/22 07:37:32;;;;;;;1.30;1.05;;;4.60;99.90;;;;;;5085098;28;20039;-76
2022/11/22 07:39:57;;;;;;;2.38;0.68;;;4.60;99.90;;;;;;5084758;28;20044;-77
2022/11/22 07:42:23;;;;;;;0.75;0.75;;;4.60;99.90;;;;;;5084527;28;20040;-76
2022/11/22 07:44:48;;;;;;;1.42;0.55;;;4.70;99.90;;;;;;5082849;28;20048;-77
2022/11/22 07:47:14;;;;;;;0.93;0.88;;;4.70;99.90;;;;;;5082330;28;20498;-78
2022/11/22 07:49:40;;;;;;;1.25;1.15;;;4.80;99.90;;;;;;5082327;28;20044;-77
2022/11/22 07:52:06;;;;;;;0.90;0.75;;;4.90;99.90;;;;;;5076517;28;20055;-76
2022/11/22 07:54:31;;;;;;;0.52;0.52;;;5.00;99.90;;;;;;5061731;28;20054;-77
2022/11/22 07:56:57;;;;;;;1.92;1.75;;;5.20;99.90;;;;;;5064489;28;20536;-77
2022/11/22 07:59:22;;;;;;;0.70;0.70;;;5.30;99.90;;;;;;5041470;28;20458;-77
2022/11/22 08:01:48;;;;;;;0.70;0.65;;;5.30;99.90;;;;;;5049196;28;20171;-77
2022/11/22 08:04:14;;;;;;;0.55;0.55;;;5.40;99.90;;;;;;5048426;28;20120;-77
2022/11/22 08:06:39;;;;;;;0.10;0.10;;;5.40;99.90;;;;;;5055110;28;20377;-78
2022/11/22 08:09:05;;;;;;;0.68;0.68;;;5.50;99.90;;;;;;5049477;28;20068;-77
2022/11/22 08:11:31;;;;;;;0.57;0.28;;;5.60;99.90;;;;;;5041182;28;20047;-77
2022/11/22 08:13:56;;;;;;;0.98;0.55;;;5.60;99.90;;;;;;5041021;28;20538;-77
2022/11/22 08:16:22;;;;;;;0.45;0.40;;;5.60;99.90;;;;;;5040297;28;20048;-76
2022/11/22 08:18:48;;;;;;;0.20;0.20;;;5.60;99.90;;;;;;5040537;28;20167;-77
2022/11/22 08:21:16;;;;;;;0.25;0.25;;;5.60;99.90;;;;;;5041162;28;20411;-78
2022/11/22 08:23:42;;;;;;;0.82;0.43;;;5.60;99.90;;;;;;5055239;28;20120;-78
2022/11/22 08:26:11;;;;;;;0.20;0.20;;;5.50;99.90;;;;;;5062123;28;20053;-77
2022/11/22 08:28:37;;;;;;;0.00;0.00;;;5.50;99.90;;;;;;5043754;28;20053;-78
2022/11/22 08:31:21;;;;;;;0.20;0.20;;;5.50;99.90;;;;;;5049503;28;20506;-77
2022/11/22 08:33:47;;;;;;;0.95;0.73;;;5.60;99.90;;;;;;5049056;28;20068;-77
2022/11/22 08:36:13;;;;;;;0.57;0.57;;;5.60;99.90;;;;;;5051949;28;20530;-77
2022/11/22 08:38:39;;;;;;;0.13;0.13;;;5.60;99.90;;;;;;5039456;28;20040;-76
2022/11/22 08:41:05;;;;;;;0.77;0.63;;;5.60;99.90;;;;;;5054447;28;20101;-76
2022/11/22 08:43:31;;;;;;;0.22;0.20;;;5.50;99.90;;;;;;5054931;28;20048;-77
2022/11/22 08:45:58;;;;;;;0.20;0.20;;;5.50;99.90;;;;;;5049844;28;20033;-77
2022/11/22 08:48:25;;;;;;;0.22;0.10;;;5.50;99.90;;;;;;5044830;28;20076;-76
2022/11/22 08:50:52;;;;;;;0.63;0.63;;;5.50;99.90;;;;;;5041504;28;20131;-77
2022/11/22 08:53:18;;;;;;;1.58;1.48;;;5.40;99.90;;;;;;5045805;28;20086;-77
2022/11/22 08:55:44;;;;;;;1.27;0.82;;;5.40;99.90;;;;;;5048492;28;20045;-76
2022/11/22 08:58:10;;;;;;;0.90;0.75;;;5.50;99.90;;;;;;5049664;28;20408;-77
2022/11/22 09:00:35;;;;;;;0.47;0.47;;;5.50;99.90;;;;;;5060911;28;20036;-77
2022/11/22 09:03:01;;;;;;;0.10;0.10;;;5.50;99.90;;;;;;5061424;28;20403;-77
2022/11/22 09:05:27;;;;;;;0.50;0.22;;;5.50;99.90;;;;;;5060900;28;20771;-77
2022/11/22 09:07:52;;;;;;;3.55;1.98;;;5.60;99.90;;;;;;5060939;28;20045;-77
2022/11/22 09:10:18;;;;;;;0.00;0.00;;;5.60;99.90;;;;;;5042952;28;20048;-77
2022/11/22 09:12:44;;;;;;;0.40;0.38;;;5.70;99.90;;;;;;5060481;28;20052;-76
2022/11/22 09:15:10;;;;;;;0.70;0.57;;;5.90;99.90;;;;;;5060451;28;20054;-77
2022/11/22 09:17:36;;;;;;;0.30;0.30;;;6.00;99.90;;;;;;5060959;28;20481;-77
2022/11/22 09:20:02;;;;;;;0.35;0.30;;;6.00;99.90;;;;;;5061046;28;20504;-77
2022/11/22 09:22:28;;;;;;;1.65;1.55;;;5.90;99.90;;;;;;5060661;28;20411;-77
2022/11/22 09:24:53;;;;;;;0.28;0.28;;;5.90;99.90;;;;;;5060677;28;20045;-77
2022/11/22 09:27:19;;;;;;;0.10;0.10;;;6.10;99.90;;;;;;5041987;28;20496;-77
2022/11/22 09:29:44;;;;;;;0.00;0.00;;;6.10;99.90;;;;;;5061151;28;20075;-77
2022/11/22 09:32:10;;;;;;;1.08;0.65;;;6.10;99.90;;;;;;5060836;28;20482;-77
2022/11/22 09:34:36;;;;;;;5.03;1.73;;;6.20;99.90;;;;;;5060678;28;20076;-77
2022/11/22 09:37:01;;;;;;;2.30;1.75;;;6.20;52.00;;;;;;5041860;28;20053;-77
2022/11/22 09:39:27;;;;;;;0.00;0.00;;;6.20;39.30;;;;;;5042369;28;20091;-77
2022/11/22 09:42:03;;;;;;;0.43;0.43;;;6.10;91.20;;;;;;5060316;28;20063;-77
2022/11/22 09:44:40;;;;;;;0.38;0.17;;;6.20;7.40;;;;;;5041729;28;20064;-77
2022/11/22 09:47:31;;;;;;;0.45;0.45;;;6.20;1.00;;;;;;5060220;28;20522;-77
2022/11/22 09:50:09;;;;;;;1.08;0.57;;;6.20;1.00;;;;;;5059423;28;20056;-77
2022/11/22 09:52:48;;;;;;;1.08;0.90;;;6.20;88.10;;;;;;5041785;28;20063;-77
2022/11/22 09:55:33;;;;;;;0.93;0.85;;;6.30;1.00;;;;;;5060139;28;20060;-77
2022/11/22 09:58:23;;;;;;;1.00;0.90;;;6.30;42.50;;;;;;5042122;28;20084;-77
2022/11/22 10:00:49;;;;;;;1.48;0.63;;;6.40;99.90;;;;;;5041700;28;20087;-77
2022/11/22 10:03:30;;;;;;;0.47;0.35;;;6.40;99.90;;;;;;5042407;28;20522;-77
2022/11/22 10:06:03;;;;;;;0.30;0.30;;;6.50;99.90;;;;;;5060064;28;20059;-76
2022/11/22 10:08:40;;;;;;;0.98;0.85;;;6.50;99.90;;;;;;5042239;28;20053;-77
2022/11/22 10:11:43;;;;;;;0.00;0.00;;;6.60;1.00;;;;;;5059751;28;20060;-75
2022/11/22 10:14:27;;;;;;;0.00;0.00;;;6.70;99.90;;;;;;5042206;28;20044;-76
2022/11/22 10:17:21;;;;;;;0.55;0.55;;;6.70;99.90;;;;;;5060470;28;20072;-77
2022/11/22 10:20:15;;;;;;;0.57;0.55;;;6.60;83.00;;;;;;5060389;28;20055;-76
2022/11/22 10:22:41;;;;;;;0.00;0.00;;;6.70;99.90;;;;;;5060194;28;20063;-77
2022/11/22 10:25:34;;;;;;;1.70;0.45;;;6.70;66.70;;;;;;5041695;28;20045;-77
2022/11/22 10:28:10;;;;;;;17.52;1.75;;;6.60;99.90;;;;;;5059679;28;20127;-77
2022/11/22 10:30:41;;;;;;;0.05;0.05;;;6.80;99.90;;;;;;5059838;28;20049;-77
2022/11/22 10:33:17;;;;;;;0.10;0.10;;;6.80;99.90;;;;;;5059828;28;20048;-76
2022/11/22 10:36:07;;;;;;;0.00;0.00;;;6.80;99.90;;;;;;5040050;28;20049;-75
2022/11/22 10:38:45;;;;;;;0.57;0.43;;;6.80;99.90;;;;;;5070881;28;20094;-76
2022/11/22 10:41:13;;;;;;;0.10;0.10;;;7.00;99.90;;;;;;5081954;28;20092;-76
2022/11/22 10:43:44;;;;;;;0.00;0.00;;;7.00;99.90;;;;;;5082207;28;20044;-78
2022/11/22 10:46:47;;;;;;;0.10;0.10;;;7.10;99.90;;;;;;5054762;28;20457;-76
2022/11/22 10:49:36;;;;;;;0.20;0.20;;;7.30;99.90;;;;;;5023262;28;20052;-77
2022/11/22 10:52:01;;;;;;;3.92;0.90;;;7.40;99.90;;;;;;5061825;28;20076;-77
2022/11/22 10:54:45;;;;;;;0.00;0.00;;;7.50;99.90;;;;;;5081783;28;20135;-76
2022/11/22 10:57:33;;;;;;;0.00;0.00;;;7.60;99.90;;;;;;5084362;28;20422;-76
2022/11/22 11:00:23;;;;;;;0.00;0.00;;;7.60;1.00;;;;;;5086522;28;20093;-77
2022/11/22 11:03:13;;;;;;;1.95;0.55;;;7.70;86.60;;;;;;5103265;28;20048;-76
2022/11/22 11:05:44;;;;;;;0.00;0.00;;;7.70;1.00;;;;;;5103374;28;20055;-75
2022/11/22 11:08:15;;;;;;;0.00;0.00;;;7.70;1.00;;;;;;5084480;28;20059;-76
2022/11/22 11:10:41;;;;;;;0.47;0.35;;;7.60;99.90;;;;;;5084237;28;20108;-77
2022/11/22 11:13:35;;;;;;;0.45;0.32;;;7.70;1.00;;;;;;5101882;28;20581;-77
2022/11/22 11:16:06;;;;;;;0.55;0.35;;;7.50;99.90;;;;;;5102173;28;20512;-77
2022/11/22 11:18:41;;;;;;;0.52;0.47;;;7.50;99.90;;;;;;5102801;28;20138;-77
2022/11/22 11:21:12;;;;;;;0.85;0.75;;;7.60;1.00;;;;;;5102906;28;20086;-77
2022/11/22 11:23:38;;;;;;;8.38;2.28;;;7.60;99.90;;;;;;5102776;28;20047;-77
2022/11/22 11:26:34;;;;;;;1.70;0.55;;;7.60;99.90;;;;;;5102658;28;20491;-76
2022/11/22 11:29:17;;;;;;;0.00;0.00;;;7.80;5.70;;;;;;5067901;28;20055;-77
2022/11/22 11:31:48;;;;;;;0.00;0.00;;;7.90;1.00;;;;;;5102910;28;20043;-78
2022/11/22 11:34:26;;;;;;;0.32;0.32;;;7.90;1.00;;;;;;5102498;28;20074;-77
2022/11/22 11:36:55;;;;;;;1.65;0.90;;;7.80;99.90;;;;;;5084459;28;20372;-76
2022/11/22 11:39:32;;;;;;;0.00;0.00;;;7.70;1.00;;;;;;5102741;28;20047;-77
2022/11/22 11:41:58;;;;;;;0.00;0.00;;;7.70;6.40;;;;;;5102501;28;20039;-77
2022/11/22 11:44:30;;;;;;;1.23;0.88;;;7.80;99.90;;;;;;5102557;28;20044;-76
2022/11/22 11:46:57;;;;;;;0.10;0.10;;;7.90;99.90;;;;;;5104069;28;20055;-76
2022/11/22 11:49:33;;;;;;;0.38;0.25;;;7.80;99.90;;;;;;5085379;28;20126;-77
2022/11/22 11:52:15;;;;;;;0.00;0.00;;;7.70;1.00;;;;;;5104989;28;20081;-76
2022/11/22 11:54:43;;;;;;;0.00;0.00;;;7.70;39.80;;;;;;5104001;28;20122;-76
2022/11/22 11:57:17;;;;;;;1.45;1.35;;;7.70;1.00;;;;;;5104134;28;20398;-77
2022/11/22 11:59:46;;;;;;;0.10;0.10;;;7.80;1.00;;;;;;5085194;28;20056;-77
2022/11/22 12:02:30;;;;;;;0.20;0.20;;;7.80;91.20;;;;;;5104491;28;20059;-76
2022/11/22 12:05:06;;;;;;;0.22;0.22;;;7.90;99.90;;;;;;5104129;28;20055;-76
2022/11/22 12:07:34;;;;;;;1.23;1.15;;;8.10;99.90;;;;;;5103933;28;20509;-76
2022/11/22 12:10:02;;;;;;;0.35;0.32;;;8.10;99.90;;;;;;5104166;28;20047;-77
2022/11/22 12:12:47;;;;;;;0.63;0.10;;;8.10;99.90;;;;;;5104108;28;20043;-77
2022/11/22 12:15:42;;;;;;;0.10;0.10;;;8.10;99.90;;;;;;5104033;28;20427;-77
2022/11/22 12:18:24;;;;;;;0.20;0.20;;;8.10;99.90;;;;;;5067452;28;20386;-76
2022/11/22 12:21:21;;;;;;;6.32;2.08;;;8.20;99.90;;;;;;5085659;28;20489;-77
2022/11/22 12:23:58;;;;;;;2.70;0.93;;;8.20;99.90;;;;;;5103995;28;20047;-76
2022/11/22 12:26:26;;;;;;;0.30;0.30;;;8.10;99.90;;;;;;5103555;28;20435;-77
2022/11/22 12:28:53;;;;;;;0.00;0.00;;;8.20;99.90;;;;;;5104199;28;20470;-76
2022/11/22 12:31:24;;;;;;;0.95;0.73;;;8.20;99.90;;;;;;5068929;28;20047;-77
2022/11/22 12:33:59;;;;;;;0.10;0.08;;;8.30;99.90;;;;;;5085145;28;20130;-77
2022/11/22 12:37:09;;;;;;;0.00;0.00;;;8.40;87.80;;;;;;5085347;28;20035;-77
2022/11/22 12:39:36;;;;;;;0.00;0.00;;;8.30;1.00;;;;;;5064987;28;20060;-77
2022/11/22 12:42:12;;;;;;;0.10;0.10;;;8.30;58.70;;;;;;5103550;28;20066;-76
2022/11/22 12:44:51;;;;;;;0.00;0.00;;;8.30;88.00;;;;;;5103287;28;20051;-77
2022/11/22 12:47:27;;;;;;;0.00;0.00;;;8.20;99.00;;;;;;5103062;28;20043;-76
2022/11/22 12:50:04;;;;;;;0.77;0.70;;;8.40;1.00;;;;;;5103614;28;20044;-77
2022/11/22 12:52:46;;;;;;;0.00;0.00;;;8.40;99.90;;;;;;5103096;28;20095;-77
2022/11/22 12:55:16;;;;;;;0.08;0.08;;;8.50;1.00;;;;;;5103891;28;20120;-77
2022/11/22 12:57:53;;;;;;;0.73;0.43;;;8.50;20.50;;;;;;5102538;28;20574;-76
2022/11/22 13:00:23;;;;;;;0.22;0.22;;;8.40;1.00;;;;;;5101948;28;20460;-76
2022/11/22 13:02:55;;;;;;;0.25;0.25;;;8.40;1.00;;;;;;5084854;28;20424;-77
2022/11/22 13:05:28;;;;;;;0.00;0.00;;;8.40;99.90;;;;;;5084411;28;20122;-77
2022/11/22 13:08:17;;;;;;;4.28;0.95;;;8.30;1.00;;;;;;5103676;28;20088;-77
2022/11/22 13:10:55;;;;;;;0.00;0.00;;;8.20;23.40;;;;;;5103480;28;20073;-77
2022/11/22 13:13:28;;;;;;;0.00;0.00;;;8.20;8.10;;;;;;5103046;28;20055;-77
2022/11/22 13:15:57;;;;;;;0.10;0.10;;;8.10;1.00;;;;;;5084548;28;20054;-77
2022/11/22 13:18:26;;;;;;;0.57;0.57;;;8.10;1.00;;;;;;5103357;28;20051;-76
2022/11/22 13:21:22;;;;;;;0.00;0.00;;;8.10;1.00;;;;;;5103464;28;20073;-76
2022/11/22 13:24:16;;;;;;;0.63;0.63;;;8.10;99.90;;;;;;5084016;28;20226;-77
2022/11/22 13:27:10;;;;;;;3.25;1.23;;;8.00;1.00;;;;;;5084332;28;20073;-77
2022/11/22 13:29:40;;;;;;;0.00;0.00;;;8.00;1.00;;;;;;5084769;28;20164;-77